Time;durP1;ratioP1;P1;durP2;ratioP2;P2;SDS_P1;SDS_P2;PMS_P1;PMS_P2;Temp;Humidity;BMP_temperature;BMP_pressure;BME280_temperature;BME280_humidity;BME280_pressure;Samples;Min_cycle;Max_cycle;Signal;HPM_P1;HPM_P2
2022/10/27 00:00:09;;;;;;;5.83;4.25;;;;;;;;;;1788308;79;21021;-67
2022/10/27 00:02:43;;;;;;;9.30;4.33;;;;;;;;;;1787603;79;21223;-69
2022/10/27 00:05:09;;;;;;;9.05;4.60;;;;;;;;;;1810720;79;21001;-68
2022/10/27 00:07:36;;;;;;;6.25;4.25;;;;;;;;;;1809157;79;22184;-68
2022/10/27 00:10:06;;;;;;;7.00;4.08;;;;;;;;;;1795878;79;21018;-69
2022/10/27 00:12:32;;;;;;;7.60;4.37;;;;;;;;;;1761993;80;21020;-68
2022/10/27 00:14:58;;;;;;;8.68;4.33;;;;;;;;;;1744316;82;20993;-67
2022/10/27 00:17:24;;;;;;;6.37;4.42;;;;;;;;;;1730694;82;21049;-67
2022/10/27 00:19:51;;;;;;;5.33;3.98;;;;;;;;;;1743805;82;21084;-68
2022/10/27 00:22:17;;;;;;;9.75;4.65;;;;;;;;;;1741398;82;21004;-68
2022/10/27 00:24:44;;;;;;;7.17;4.70;;;;;;;;;;1756602;80;21061;-67
2022/10/27 00:27:10;;;;;;;6.95;4.45;;;;;;;;;;1768547;80;21064;-68
2022/10/27 00:29:37;;;;;;;6.22;3.83;;;;;;;;;;1749033;80;21065;-67
2022/10/27 00:32:04;;;;;;;6.55;4.58;;;;;;;;;;1744643;82;21002;-67
2022/10/27 00:34:29;;;;;;;5.45;3.85;;;;;;;;;;1749347;80;21017;-68
2022/10/27 00:36:56;;;;;;;7.47;4.72;;;;;;;;;;1752859;80;21020;-68
2022/10/27 00:39:22;;;;;;;6.58;4.35;;;;;;;;;;1776814;80;21037;-66
2022/10/27 00:41:49;;;;;;;6.65;4.30;;;;;;;;;;1747142;80;21477;-68
2022/10/27 00:44:35;;;;;;;7.22;4.20;;;;;;;;;;1767871;80;21038;-67
2022/10/27 00:47:12;;;;;;;7.90;4.70;;;;;;;;;;1760329;80;21524;-67
2022/10/27 00:49:43;;;;;;;8.05;4.08;;;;;;;;;;1758568;80;21044;-68
2022/10/27 00:52:29;;;;;;;8.33;4.67;;;;;;;;;;1784810;80;21653;-68
2022/10/27 00:54:57;;;;;;;9.25;4.25;;;;;;;;;;1786362;80;21100;-68
2022/10/27 00:57:24;;;;;;;8.05;4.20;;;;;;;;;;1772046;80;21532;-67
2022/10/27 00:59:50;;;;;;;6.30;4.12;;;;;;;;;;1758380;80;21036;-68
2022/10/27 01:02:16;;;;;;;6.33;4.45;;;;;;;;;;1747597;80;21041;-67
2022/10/27 01:04:47;;;;;;;6.62;4.17;;;;;;;;;;1772784;80;21021;-68
2022/10/27 01:07:14;;;;;;;6.70;4.28;;;;;;;;;;1731533;82;21064;-68
2022/10/27 01:09:40;;;;;;;6.05;4.42;;;;;;;;;;1768395;80;21045;-67
2022/10/27 01:12:06;;;;;;;8.10;4.45;;;;;;;;;;1781222;80;21037;-67
2022/10/27 01:14:32;;;;;;;6.87;4.33;;;;;;;;;;1752210;81;21062;-68
2022/10/27 01:17:04;;;;;;;7.30;4.65;;;;;;;;;;1750636;81;21005;-68
2022/10/27 01:19:37;;;;;;;7.78;5.03;;;;;;;;;;1756350;80;21522;-68
2022/10/27 01:22:03;;;;;;;;;;;;;;;;;;1759328;81;21029;-67
2022/10/27 01:24:50;;;;;;;5.95;4.42;;;;;;;;;;1746693;81;20187;-67
2022/10/27 01:27:18;;;;;;;7.75;4.33;;;;;;;;;;1733709;81;21033;-68
2022/10/27 01:29:58;;;;;;;7.25;4.35;;;;;;;;;;1742211;81;21054;-68
2022/10/27 01:32:43;;;;;;;7.92;4.90;;;;;;;;;;1756329;81;21106;-68
2022/10/27 01:35:12;;;;;;;6.22;4.72;;;;;;;;;;1722041;82;21631;-68
2022/10/27 01:37:40;;;;;;;6.53;4.12;;;;;;;;;;1754918;81;21036;-67
2022/10/27 01:40:15;;;;;;;8.43;4.65;;;;;;;;;;1778315;79;21069;-68
2022/10/27 01:42:46;;;;;;;6.45;4.58;;;;;;;;;;1777462;79;21045;-68
2022/10/27 01:45:12;;;;;;;5.17;3.85;;;;;;;;;;1798623;79;21077;-68
2022/10/27 01:47:39;;;;;;;8.28;4.80;;;;;;;;;;1757035;79;21509;-67
2022/10/27 01:50:06;;;;;;;7.28;4.40;;;;;;;;;;1814094;79;21556;-68
2022/10/27 01:52:43;;;;;;;7.08;4.30;;;;;;;;;;1780519;79;21537;-68
2022/10/27 01:55:11;;;;;;;6.50;4.30;;;;;;;;;;1773944;79;21071;-68
2022/10/27 01:57:48;;;;;;;7.75;4.78;;;;;;;;;;1800216;79;21040;-67
2022/10/27 02:00:15;;;;;;;5.87;3.95;;;;;;;;;;1776272;79;21049;-68
2022/10/27 02:05:44;;;;;;;6.20;4.70;;;;;;;;;;1711917;80;77694;-66
2022/10/27 02:08:15;;;;;;;7.45;4.45;;;;;;;;;;1711992;83;21066;-67
2022/10/27 02:10:47;;;;;;;7.17;4.00;;;;;;;;;;1710021;84;21125;-66
2022/10/27 02:13:14;;;;;;;7.22;5.03;;;;;;;;;;1709955;83;21498;-65
2022/10/27 02:15:48;;;;;;;7.53;4.72;;;;;;;;;;1710284;84;21054;-68
2022/10/27 02:18:14;;;;;;;;;;;;;;;;;;1694299;84;21036;-66
2022/10/27 02:20:40;;;;;;;6.50;4.47;;;;;;;;;;1711731;84;20125;-67
2022/10/27 02:23:07;;;;;;;6.53;4.28;;;;;;;;;;1709822;83;21054;-66
2022/10/27 02:25:36;;;;;;;7.65;4.33;;;;;;;;;;1711108;84;21122;-66
2022/10/27 02:28:03;;;;;;;6.28;4.30;;;;;;;;;;1712042;84;21016;-67
2022/10/27 02:30:29;;;;;;;6.90;4.60;;;;;;;;;;1711761;83;21550;-67
2022/10/27 02:32:55;;;;;;;5.35;3.87;;;;;;;;;;1712101;84;21546;-68
2022/10/27 02:35:22;;;;;;;6.53;4.30;;;;;;;;;;1710505;84;21090;-67
2022/10/27 02:37:48;;;;;;;5.95;4.10;;;;;;;;;;1710705;83;21007;-66
2022/10/27 02:40:14;;;;;;;7.87;4.22;;;;;;;;;;1710316;84;21047;-66
2022/10/27 02:42:40;;;;;;;6.08;3.80;;;;;;;;;;1711948;84;21047;-68
2022/10/27 02:45:07;;;;;;;7.80;4.25;;;;;;;;;;1710493;84;21074;-66
2022/10/27 02:47:33;;;;;;;8.73;4.45;;;;;;;;;;1711323;84;21530;-66
2022/10/27 02:49:59;;;;;;;6.50;4.30;;;;;;;;;;1717152;82;21097;-66
2022/10/27 02:52:26;;;;;;;6.55;4.47;;;;;;;;;;1711215;83;21021;-67
2022/10/27 02:54:53;;;;;;;7.12;4.40;;;;;;;;;;1711860;84;21075;-66
2022/10/27 02:57:19;;;;;;;5.00;3.67;;;;;;;;;;1710358;84;21134;-66
2022/10/27 02:59:45;;;;;;;6.25;4.08;;;;;;;;;;1711050;84;21023;-67
2022/10/27 03:02:11;;;;;;;6.95;4.03;;;;;;;;;;1711103;84;21091;-66
2022/10/27 03:04:37;;;;;;;5.67;3.70;;;;;;;;;;1730923;82;21611;-67
2022/10/27 03:07:03;;;;;;;4.40;3.50;;;;;;;;;;1742717;82;21029;-67
2022/10/27 03:09:30;;;;;;;5.67;4.15;;;;;;;;;;1740377;82;21061;-67
2022/10/27 03:11:56;;;;;;;6.92;4.03;;;;;;;;;;1753740;82;21045;-67
2022/10/27 03:14:22;;;;;;;5.92;3.90;;;;;;;;;;1748362;82;21013;-68
2022/10/27 03:16:49;;;;;;;7.58;4.20;;;;;;;;;;1749640;82;21006;-66
2022/10/27 03:19:15;;;;;;;7.00;4.37;;;;;;;;;;1750323;82;21602;-66
2022/10/27 03:21:42;;;;;;;8.18;4.17;;;;;;;;;;1749124;82;21009;-67
2022/10/27 03:24:08;;;;;;;6.78;4.10;;;;;;;;;;1746559;82;21068;-67
2022/10/27 03:26:35;;;;;;;5.50;3.65;;;;;;;;;;1744922;82;21013;-67
2022/10/27 03:29:03;;;;;;;8.70;4.25;;;;;;;;;;1743393;82;21045;-67
2022/10/27 03:31:30;;;;;;;5.90;3.42;;;;;;;;;;1745757;82;21072;-67
2022/10/27 03:33:56;;;;;;;9.08;4.78;;;;;;;;;;1747085;82;21128;-66
2022/10/27 03:36:23;;;;;;;6.83;3.90;;;;;;;;;;1751521;82;21033;-66
2022/10/27 03:38:49;;;;;;;7.97;4.45;;;;;;;;;;1746699;82;21551;-67
2022/10/27 03:41:15;;;;;;;6.42;4.10;;;;;;;;;;1748699;82;21587;-66
2022/10/27 03:43:41;;;;;;;6.45;3.98;;;;;;;;;;1743485;82;21059;-66
2022/10/27 03:46:08;;;;;;;7.45;4.15;;;;;;;;;;1753901;82;21028;-66
2022/10/27 03:48:34;;;;;;;5.83;3.67;;;;;;;;;;1742360;82;20974;-67
2022/10/27 03:51:00;;;;;;;7.62;4.17;;;;;;;;;;1763936;81;21069;-68
2022/10/27 03:53:27;;;;;;;8.15;4.72;;;;;;;;;;1748414;82;21012;-68
2022/10/27 03:55:53;;;;;;;6.40;4.55;;;;;;;;;;1746926;82;21033;-69
2022/10/27 03:58:19;;;;;;;6.97;4.15;;;;;;;;;;1744840;82;21018;-68
2022/10/27 04:00:46;;;;;;;13.13;5.60;;;;;;;;;;1748541;82;21021;-70
2022/10/27 04:03:12;;;;;;;6.30;4.12;;;;;;;;;;1745991;81;22075;-68
2022/10/27 04:05:39;;;;;;;7.80;4.42;;;;;;;;;;1733553;81;21123;-67
2022/10/27 04:08:05;;;;;;;8.58;4.47;;;;;;;;;;1744824;81;21080;-68
2022/10/27 04:10:31;;;;;;;7.33;4.58;;;;;;;;;;1748345;81;21085;-68
2022/10/27 04:12:58;;;;;;;9.35;4.60;;;;;;;;;;1753330;81;21064;-68
2022/10/27 04:15:26;;;;;;;11.28;5.08;;;;;;;;;;1752906;81;21062;-67
2022/10/27 04:17:53;;;;;;;8.25;4.33;;;;;;;;;;1754184;81;21181;-66
2022/10/27 04:20:19;;;;;;;6.80;4.50;;;;;;;;;;1755804;81;21026;-67
2022/10/27 04:22:46;;;;;;;9.03;5.15;;;;;;;;;;1757016;81;21039;-67
2022/10/27 04:25:13;;;;;;;7.70;4.90;;;;;;;;;;1753005;81;21041;-66
2022/10/27 04:27:39;;;;;;;6.65;4.35;;;;;;;;;;1755680;80;21032;-66
2022/10/27 04:30:06;;;;;;;8.95;4.40;;;;;;;;;;1751239;81;21060;-65
2022/10/27 04:32:32;;;;;;;6.05;4.03;;;;;;;;;;1750020;81;21512;-66
2022/10/27 04:34:58;;;;;;;6.22;4.37;;;;;;;;;;1746005;81;21000;-66
2022/10/27 04:37:25;;;;;;;7.92;4.67;;;;;;;;;;1760391;81;21079;-65
2022/10/27 04:39:51;;;;;;;7.17;4.17;;;;;;;;;;1749360;81;21012;-65
2022/10/27 04:42:17;;;;;;;6.62;4.25;;;;;;;;;;1752368;80;21072;-66
2022/10/27 04:44:46;;;;;;;7.90;4.65;;;;;;;;;;1747257;81;21104;-68
2022/10/27 04:47:12;;;;;;;7.12;4.40;;;;;;;;;;1751435;81;21056;-67
2022/10/27 04:49:38;;;;;;;8.10;4.53;;;;;;;;;;1754765;80;21014;-66
2022/10/27 04:52:05;;;;;;;8.68;4.62;;;;;;;;;;1754888;81;21552;-66
2022/10/27 04:54:31;;;;;;;11.43;5.65;;;;;;;;;;1746972;81;21076;-66
2022/10/27 04:56:58;;;;;;;6.25;3.90;;;;;;;;;;1756863;81;21056;-66
2022/10/27 04:59:25;;;;;;;7.80;4.37;;;;;;;;;;1754399;81;21537;-66
2022/10/27 05:01:51;;;;;;;7.87;4.60;;;;;;;;;;1760936;81;21097;-66
2022/10/27 05:04:17;;;;;;;6.62;4.78;;;;;;;;;;1757268;80;21052;-67
2022/10/27 05:06:43;;;;;;;7.05;4.55;;;;;;;;;;1746446;81;21005;-67
2022/10/27 05:09:11;;;;;;;6.05;3.98;;;;;;;;;;1742973;82;21053;-66
2022/10/27 05:11:38;;;;;;;7.05;4.25;;;;;;;;;;1745434;80;21600;-63
2022/10/27 05:14:05;;;;;;;6.95;4.37;;;;;;;;;;1747449;81;21539;-63
2022/10/27 05:16:32;;;;;;;8.03;4.50;;;;;;;;;;1744584;82;21044;-63
2022/10/27 05:18:58;;;;;;;10.30;4.80;;;;;;;;;;1744650;82;21072;-63
2022/10/27 05:21:25;;;;;;;6.90;4.55;;;;;;;;;;1742265;82;21048;-62
2022/10/27 05:23:51;;;;;;;9.20;4.85;;;;;;;;;;1752992;82;21032;-63
2022/10/27 05:26:19;;;;;;;8.05;4.15;;;;;;;;;;1744724;82;21053;-62
2022/10/27 05:28:46;;;;;;;8.50;4.40;;;;;;;;;;1739223;82;22295;-63
2022/10/27 05:31:12;;;;;;;6.97;4.20;;;;;;;;;;1743356;82;21052;-63
2022/10/27 05:33:38;;;;;;;5.65;3.77;;;;;;;;;;1744821;82;21520;-63
2022/10/27 05:36:05;;;;;;;6.95;4.40;;;;;;;;;;1748818;82;21072;-63
2022/10/27 05:38:32;;;;;;;9.55;4.65;;;;;;;;;;1761962;80;21032;-63
2022/10/27 05:40:59;;;;;;;6.58;4.17;;;;;;;;;;1702077;83;21086;-62
2022/10/27 05:43:25;;;;;;;7.17;4.05;;;;;;;;;;1764453;81;21095;-63
2022/10/27 05:45:51;;;;;;;7.80;4.25;;;;;;;;;;1768234;81;21087;-63
2022/10/27 05:48:17;;;;;;;8.33;4.72;;;;;;;;;;1764285;80;21044;-64
2022/10/27 05:50:43;;;;;;;6.20;3.70;;;;;;;;;;1767724;80;21092;-65
2022/10/27 05:53:09;;;;;;;6.78;4.12;;;;;;;;;;1765605;81;21604;-65
2022/10/27 05:55:36;;;;;;;9.95;4.10;;;;;;;;;;1766141;80;21479;-63
2022/10/27 05:58:03;;;;;;;5.10;3.42;;;;;;;;;;1765919;81;21064;-63
2022/10/27 06:00:30;;;;;;;5.78;4.00;;;;;;;;;;1768931;79;21470;-63
2022/10/27 06:02:57;;;;;;;6.28;4.15;;;;;;;;;;1764066;80;21587;-63
2022/10/27 06:05:24;;;;;;;7.28;4.15;;;;;;;;;;1765020;79;21172;-61
2022/10/27 06:07:50;;;;;;;6.67;3.83;;;;;;;;;;1770935;81;21417;-62
2022/10/27 06:10:16;;;;;;;6.08;4.00;;;;;;;;;;1771774;81;21309;-64
2022/10/27 06:12:43;;;;;;;7.08;3.80;;;;;;;;;;1768335;81;21060;-63
2022/10/27 06:15:10;;;;;;;9.35;3.70;;;;;;;;;;1768455;81;21555;-64
2022/10/27 06:17:38;;;;;;;6.20;3.90;;;;;;;;;;1768211;81;21068;-63
2022/10/27 06:20:05;;;;;;;8.95;4.17;;;;;;;;;;1768330;80;21535;-63
2022/10/27 06:22:31;;;;;;;7.30;4.17;;;;;;;;;;1770031;81;20968;-63
2022/10/27 06:24:57;;;;;;;8.40;4.40;;;;;;;;;;1771855;81;21108;-63
2022/10/27 06:27:23;;;;;;;5.70;3.92;;;;;;;;;;1770684;81;21089;-63
2022/10/27 06:29:49;;;;;;;8.58;4.50;;;;;;;;;;1768205;81;21020;-63
2022/10/27 06:32:15;;;;;;;5.45;3.87;;;;;;;;;;1770810;81;20992;-64
2022/10/27 06:34:42;;;;;;;7.17;4.05;;;;;;;;;;1772218;81;21039;-64
2022/10/27 06:37:08;;;;;;;5.90;3.92;;;;;;;;;;1771872;79;21043;-63
2022/10/27 06:39:36;;;;;;;5.17;3.55;;;;;;;;;;1770262;81;21024;-63
2022/10/27 06:42:02;;;;;;;7.03;4.12;;;;;;;;;;1770539;80;21716;-63
2022/10/27 06:44:29;;;;;;;7.47;4.03;;;;;;;;;;1769856;81;21048;-63
2022/10/27 06:46:55;;;;;;;7.22;3.83;;;;;;;;;;1770476;81;21044;-63
2022/10/27 06:49:22;;;;;;;7.22;3.83;;;;;;;;;;1770474;81;21044;-63
2022/10/27 06:51:48;;;;;;;8.20;4.37;;;;;;;;;;1772053;79;21032;-63
2022/10/27 06:54:14;;;;;;;6.15;3.65;;;;;;;;;;1772010;81;21027;-63
2022/10/27 06:56:40;;;;;;;7.30;3.98;;;;;;;;;;1771346;80;21055;-62
2022/10/27 06:59:07;;;;;;;6.47;3.75;;;;;;;;;;1771369;81;21578;-64
2022/10/27 07:01:33;;;;;;;6.67;3.98;;;;;;;;;;1781796;80;21043;-64
2022/10/27 07:03:59;;;;;;;5.83;3.85;;;;;;;;;;1789847;78;21131;-63
2022/10/27 07:06:25;;;;;;;6.20;3.83;;;;;;;;;;1760221;80;21592;-63
2022/10/27 07:08:51;;;;;;;6.97;4.08;;;;;;;;;;1755521;81;21020;-62
2022/10/27 07:11:18;;;;;;;7.62;3.90;;;;;;;;;;1749180;81;20997;-63
2022/10/27 07:13:44;;;;;;;7.30;3.77;;;;;;;;;;1746283;82;21583;-63
2022/10/27 07:16:10;;;;;;;5.87;3.65;;;;;;;;;;1745355;82;21548;-63
2022/10/27 07:18:37;;;;;;;6.72;3.80;;;;;;;;;;1744017;82;21104;-63
2022/10/27 07:21:04;;;;;;;6.50;4.12;;;;;;;;;;1749105;81;21457;-62
2022/10/27 07:23:30;;;;;;;7.33;3.85;;;;;;;;;;1754568;81;21044;-63
2022/10/27 07:25:57;;;;;;;6.87;3.60;;;;;;;;;;1750888;81;21076;-63
2022/10/27 07:28:23;;;;;;;7.28;3.37;;;;;;;;;;1751418;82;21048;-63
2022/10/27 07:30:52;;;;;;;8.65;3.92;;;;;;;;;;1774071;80;21064;-62
2022/10/27 07:33:19;;;;;;;6.53;4.28;;;;;;;;;;1761435;81;21099;-62
2022/10/27 07:35:48;;;;;;;5.42;3.60;;;;;;;;;;1773568;81;21061;-63
2022/10/27 07:38:15;;;;;;;5.97;3.30;;;;;;;;;;1764233;81;21056;-64
2022/10/27 07:40:41;;;;;;;6.70;3.55;;;;;;;;;;1748853;81;21777;-62
2022/10/27 07:43:08;;;;;;;6.30;4.20;;;;;;;;;;1749323;81;21044;-63
2022/10/27 07:45:36;;;;;;;6.87;3.67;;;;;;;;;;1753301;80;21080;-63
2022/10/27 07:48:04;;;;;;;4.45;3.30;;;;;;;;;;1754514;81;21052;-63
2022/10/27 07:50:32;;;;;;;6.65;4.08;;;;;;;;;;1756026;81;21523;-63
2022/10/27 07:52:59;;;;;;;5.60;3.87;;;;;;;;;;1752767;80;21013;-63
2022/10/27 07:55:26;;;;;;;6.78;3.70;;;;;;;;;;1749548;82;21044;-64
2022/10/27 07:58:01;;;;;;;6.65;4.47;;;;;;;;;;1751788;81;21052;-62
2022/10/27 08:00:27;;;;;;;7.37;4.00;;;;;;;;;;1749672;82;21057;-62
2022/10/27 08:02:54;;;;;;;8.53;4.05;;;;;;;;;;1750702;81;21143;-63
2022/10/27 08:05:20;;;;;;;7.12;4.40;;;;;;;;;;1752202;81;21005;-62
2022/10/27 08:07:46;;;;;;;6.65;3.87;;;;;;;;;;1762963;81;21514;-63
2022/10/27 08:10:12;;;;;;;8.40;4.50;;;;;;;;;;1765785;81;21059;-63
2022/10/27 08:12:42;;;;;;;7.17;4.25;;;;;;;;;;1769550;80;21032;-64
2022/10/27 08:15:09;;;;;;;8.75;4.58;;;;;;;;;;1761716;81;21116;-63
2022/10/27 08:17:35;;;;;;;6.08;3.80;;;;;;;;;;1757222;79;21555;-64
2022/10/27 08:20:01;;;;;;;8.48;4.22;;;;;;;;;;1765301;81;21081;-64
2022/10/27 08:22:28;;;;;;;6.70;3.83;;;;;;;;;;1766230;80;21063;-64
2022/10/27 08:24:54;;;;;;;8.48;3.90;;;;;;;;;;1767028;81;21100;-64
2022/10/27 08:27:20;;;;;;;5.62;3.77;;;;;;;;;;1765601;81;21059;-65
2022/10/27 08:29:46;;;;;;;8.25;4.15;;;;;;;;;;1766285;80;21059;-64
2022/10/27 08:32:14;;;;;;;6.85;3.75;;;;;;;;;;1763582;81;21059;-63
2022/10/27 08:34:41;;;;;;;7.45;4.70;;;;;;;;;;1766074;81;21047;-64
2022/10/27 08:37:07;;;;;;;7.80;4.20;;;;;;;;;;1761033;80;21187;-64
2022/10/27 08:39:34;;;;;;;10.03;3.83;;;;;;;;;;1768135;80;21075;-63
2022/10/27 08:42:02;;;;;;;7.12;3.27;;;;;;;;;;1747635;81;21018;-65
2022/10/27 08:44:31;;;;;;;5.60;4.00;;;;;;;;;;1734803;82;21076;-62
2022/10/27 08:47:00;;;;;;;6.05;3.70;;;;;;;;;;1740865;82;21064;-64
2022/10/27 08:49:28;;;;;;;6.90;3.50;;;;;;;;;;1736059;82;21077;-64
2022/10/27 08:51:56;;;;;;;5.97;3.30;;;;;;;;;;1712357;82;21023;-63
2022/10/27 08:54:23;;;;;;;9.23;3.42;;;;;;;;;;1740018;82;21069;-63
2022/10/27 08:56:49;;;;;;;6.67;3.50;;;;;;;;;;1739542;82;21097;-64
2022/10/27 08:59:17;;;;;;;6.50;3.70;;;;;;;;;;1739807;82;21025;-64
2022/10/27 09:01:45;;;;;;;6.37;3.30;;;;;;;;;;1740700;82;21063;-64
2022/10/27 09:04:31;;;;;;;6.25;3.42;;;;;;;;;;1739217;82;21578;-64
2022/10/27 09:07:11;;;;;;;6.83;3.67;;;;;;;;;;1746227;81;21064;-63
2022/10/27 09:09:51;;;;;;;6.05;3.50;;;;;;;;;;1706320;82;21013;-63
2022/10/27 09:12:36;;;;;;;7.33;3.83;;;;;;;;;;1755399;82;21024;-64
2022/10/27 09:15:04;;;;;;;5.28;3.55;;;;;;;;;;1719501;83;20993;-65
2022/10/27 09:17:32;;;;;;;6.62;3.98;;;;;;;;;;1734225;81;21041;-62
2022/10/27 09:20:00;;;;;;;8.13;3.40;;;;;;;;;;1736667;82;21108;-62
2022/10/27 09:22:27;;;;;;;6.53;4.10;;;;;;;;;;1743396;81;21068;-62
2022/10/27 09:24:55;;;;;;;8.13;3.90;;;;;;;;;;1746003;81;21572;-63
2022/10/27 09:27:21;;;;;;;8.18;3.47;;;;;;;;;;1766461;81;21065;-62
2022/10/27 09:29:47;;;;;;;5.15;3.42;;;;;;;;;;1742567;82;21584;-63
2022/10/27 09:32:23;;;;;;;8.18;3.87;;;;;;;;;;1750988;81;21064;-62
2022/10/27 09:35:06;;;;;;;6.67;3.98;;;;;;;;;;1749727;82;21575;-62
2022/10/27 09:37:32;;;;;;;7.78;3.90;;;;;;;;;;1751870;81;21623;-63
2022/10/27 09:39:58;;;;;;;6.92;3.95;;;;;;;;;;1754421;81;21012;-62
2022/10/27 09:42:25;;;;;;;5.72;3.27;;;;;;;;;;1750907;82;21004;-62
2022/10/27 09:44:53;;;;;;;5.90;3.80;;;;;;;;;;1752799;81;21056;-62
2022/10/27 09:47:20;;;;;;;6.22;3.77;;;;;;;;;;1749109;82;21116;-62
2022/10/27 09:49:47;;;;;;;7.75;4.33;;;;;;;;;;1746061;82;21540;-63
2022/10/27 09:52:16;;;;;;;11.00;5.20;;;;;;;;;;1747125;81;21096;-63
2022/10/27 09:54:50;;;;;;;9.28;5.25;;;;;;;;;;1729588;81;21085;-63
2022/10/27 09:57:18;;;;;;;8.28;4.40;;;;;;;;;;1725528;83;21014;-62
2022/10/27 09:59:47;;;;;;;8.55;3.62;;;;;;;;;;1742967;82;21520;-62
2022/10/27 10:02:27;;;;;;;5.45;3.60;;;;;;;;;;1739104;81;21104;-65
2022/10/27 10:04:54;;;;;;;6.22;3.60;;;;;;;;;;1749008;82;21065;-62
2022/10/27 10:07:28;;;;;;;7.08;3.90;;;;;;;;;;1744327;81;21045;-63
2022/10/27 10:10:01;;;;;;;5.83;3.17;;;;;;;;;;1737427;82;21069;-62
2022/10/27 10:12:28;;;;;;;6.37;3.60;;;;;;;;;;1739246;82;21029;-63
2022/10/27 10:15:13;;;;;;;10.75;4.87;;;;;;;;;;1741309;82;21116;-62
2022/10/27 10:17:41;;;;;;;6.83;4.72;;;;;;;;;;1739332;81;21102;-68
2022/10/27 10:20:09;;;;;;;11.03;5.85;;;;;;;;;;1725176;82;21021;-59
2022/10/27 10:22:35;;;;;;;8.53;4.60;;;;;;;;;;1730134;82;21237;-61
2022/10/27 10:25:06;;;;;;;5.33;4.03;;;;;;;;;;1741452;82;21053;-63
2022/10/27 10:29:27;;;;;;;12.37;5.33;;;;;;;;;;1812768;78;22893;-63
2022/10/27 10:32:07;;;;;;;5.95;4.00;;;;;;;;;;1779902;79;21432;-62
2022/10/27 10:34:33;;;;;;;5.75;4.05;;;;;;;;;;1780862;79;21000;-61
2022/10/27 10:37:00;;;;;;;10.30;3.80;;;;;;;;;;1790972;79;21630;-61
2022/10/27 10:39:27;;;;;;;7.25;4.08;;;;;;;;;;1791095;79;21023;-60
2022/10/27 10:42:10;;;;;;;7.12;4.28;;;;;;;;;;1767156;79;21081;-60
2022/10/27 10:44:37;;;;;;;6.92;4.72;;;;;;;;;;1791588;79;21032;-62
2022/10/27 10:47:05;;;;;;;8.98;4.58;;;;;;;;;;1789807;79;21115;-61
2022/10/27 10:49:35;;;;;;;5.83;3.75;;;;;;;;;;1792130;80;21039;-61
2022/10/27 10:52:03;;;;;;;8.15;4.03;;;;;;;;;;1778163;79;20969;-60
2022/10/27 10:54:34;;;;;;;6.00;3.42;;;;;;;;;;1790920;80;21047;-60
2022/10/27 10:57:00;;;;;;;6.20;3.87;;;;;;;;;;1787519;80;21052;-60
2022/10/27 10:59:27;;;;;;;7.15;3.80;;;;;;;;;;1790415;79;21012;-60
2022/10/27 11:01:55;;;;;;;7.80;3.52;;;;;;;;;;1775586;80;21086;-62
2022/10/27 11:04:25;;;;;;;5.47;3.25;;;;;;;;;;1792657;80;21121;-61
2022/10/27 11:06:59;;;;;;;6.83;2.98;;;;;;;;;;1790422;80;21016;-61
2022/10/27 11:09:27;;;;;;;5.95;3.30;;;;;;;;;;1782979;80;21036;-60
2022/10/27 11:11:53;;;;;;;5.10;3.35;;;;;;;;;;1791649;80;21110;-60
2022/10/27 11:14:19;;;;;;;7.10;3.67;;;;;;;;;;1769219;80;22312;-60
2022/10/27 11:16:48;;;;;;;8.85;3.70;;;;;;;;;;1774753;79;21075;-60
2022/10/27 11:19:15;;;;;;;5.87;3.75;;;;;;;;;;1755941;80;21503;-60
2022/10/27 11:21:43;;;;;;;5.20;3.17;;;;;;;;;;1790308;79;21499;-60
2022/10/27 11:24:14;;;;;;;5.92;3.67;;;;;;;;;;1790002;79;21040;-61
2022/10/27 11:26:42;;;;;;;4.40;3.15;;;;;;;;;;1784943;80;21015;-61
2022/10/27 11:29:13;;;;;;;5.65;3.30;;;;;;;;;;1785510;80;21056;-60
2022/10/27 11:31:42;;;;;;;5.53;2.87;;;;;;;;;;1787063;80;21021;-61
2022/10/27 11:34:16;;;;;;;5.25;3.00;;;;;;;;;;1775901;80;21506;-61
2022/10/27 11:36:44;;;;;;;5.20;2.77;;;;;;;;;;1785693;80;21079;-61
2022/10/27 11:39:15;;;;;;;4.87;3.05;;;;;;;;;;1782615;80;21070;-60
2022/10/27 11:41:50;;;;;;;5.60;3.08;;;;;;;;;;1782745;80;21079;-60
2022/10/27 11:44:19;;;;;;;5.15;3.08;;;;;;;;;;1778360;80;21534;-60
2022/10/27 11:46:48;;;;;;;5.42;3.47;;;;;;;;;;1779471;80;21531;-60
2022/10/27 11:49:28;;;;;;;4.05;3.10;;;;;;;;;;1783509;80;21016;-59
2022/10/27 11:52:13;;;;;;;4.30;3.05;;;;;;;;;;1769323;80;21085;-60
2022/10/27 11:54:40;;;;;;;5.28;3.40;;;;;;;;;;1775126;80;21100;-59
2022/10/27 12:00:52;;;;;;;5.33;3.20;;;;;;;;;;1772359;80;21226;-60
2022/10/27 12:03:21;;;;;;;4.08;2.80;;;;;;;;;;1766968;80;21838;-59
2022/10/27 12:06:01;;;;;;;6.00;2.95;;;;;;;;;;1771724;80;21012;-62
2022/10/27 12:08:29;;;;;;;5.08;3.22;;;;;;;;;;1770973;80;21059;-62
2022/10/27 12:11:00;;;;;;;6.50;2.75;;;;;;;;;;1758799;80;21485;-60
2022/10/27 12:13:32;;;;;;;4.62;2.80;;;;;;;;;;1766853;80;21522;-61
2022/10/27 12:16:09;;;;;;;5.00;3.20;;;;;;;;;;1771590;80;21111;-60
2022/10/27 12:18:41;;;;;;;4.37;2.65;;;;;;;;;;1775090;80;21071;-61
2022/10/27 12:21:12;;;;;;;5.58;3.37;;;;;;;;;;1771390;80;21077;-61
2022/10/27 12:23:43;;;;;;;7.05;3.37;;;;;;;;;;1786282;80;21059;-60
2022/10/27 12:26:17;;;;;;;4.45;3.10;;;;;;;;;;1779493;80;21064;-60
2022/10/27 12:28:43;;;;;;;4.80;2.67;;;;;;;;;;1773057;80;21000;-61
2022/10/27 12:31:11;;;;;;;5.42;2.83;;;;;;;;;;1773991;81;21079;-60
2022/10/27 12:33:40;;;;;;;6.83;3.27;;;;;;;;;;1774795;80;21036;-60
2022/10/27 12:36:08;;;;;;;4.85;2.80;;;;;;;;;;1775046;81;21049;-60
2022/10/27 12:38:37;;;;;;;5.47;3.20;;;;;;;;;;1758280;81;21076;-60
2022/10/27 12:41:22;;;;;;;4.12;2.85;;;;;;;;;;1774897;80;21826;-60
2022/10/27 12:43:53;;;;;;;6.35;3.65;;;;;;;;;;1771561;80;21061;-60
2022/10/27 12:46:27;;;;;;;5.08;3.08;;;;;;;;;;1777343;81;21511;-60
2022/10/27 12:48:58;;;;;;;4.80;3.20;;;;;;;;;;1773178;81;21028;-59
2022/10/27 12:51:26;;;;;;;4.55;3.20;;;;;;;;;;1772267;80;21073;-60
2022/10/27 12:54:03;;;;;;;5.20;3.25;;;;;;;;;;1768619;81;21068;-59
2022/10/27 12:56:38;;;;;;;5.20;2.90;;;;;;;;;;1770776;81;21037;-60
2022/10/27 12:59:15;;;;;;;5.22;3.20;;;;;;;;;;1774238;81;21036;-60
2022/10/27 13:01:53;;;;;;;5.35;3.62;;;;;;;;;;1757353;79;21064;-61
2022/10/27 13:04:30;;;;;;;5.47;3.60;;;;;;;;;;1770183;80;21041;-60
2022/10/27 13:07:14;;;;;;;6.35;3.60;;;;;;;;;;1774826;81;21049;-61
2022/10/27 13:09:42;;;;;;;6.45;3.25;;;;;;;;;;1778432;80;21087;-60
2022/10/27 13:12:16;;;;;;;10.23;3.77;;;;;;;;;;1777983;81;21076;-61
2022/10/27 13:15:03;;;;;;;6.87;3.37;;;;;;;;;;1771118;80;21507;-59
2022/10/27 13:17:31;;;;;;;9.80;4.30;;;;;;;;;;1774716;80;21546;-60
2022/10/27 13:20:05;;;;;;;8.50;3.75;;;;;;;;;;1760441;80;21108;-59
2022/10/27 13:22:40;;;;;;;5.58;3.42;;;;;;;;;;1770851;81;20982;-60
2022/10/27 13:25:07;;;;;;;7.75;3.33;;;;;;;;;;1775877;80;21056;-60
2022/10/27 13:27:53;;;;;;;6.47;3.30;;;;;;;;;;1740800;81;21091;-61
2022/10/27 13:30:20;;;;;;;5.75;3.37;;;;;;;;;;1773488;81;21044;-61
2022/10/27 13:32:48;;;;;;;4.83;3.10;;;;;;;;;;1720911;82;21042;-60
2022/10/27 13:35:17;;;;;;;5.05;3.12;;;;;;;;;;1727688;81;21072;-59
2022/10/27 13:37:48;;;;;;;5.35;3.25;;;;;;;;;;1774622;80;21029;-61
2022/10/27 13:40:22;;;;;;;6.08;3.60;;;;;;;;;;1772963;80;21513;-59
2022/10/27 13:42:49;;;;;;;4.03;3.00;;;;;;;;;;1777370;81;21037;-60
2022/10/27 13:45:23;;;;;;;5.50;2.70;;;;;;;;;;1766155;80;21542;-61
2022/10/27 13:48:10;;;;;;;4.78;2.67;;;;;;;;;;1759690;80;21049;-60
2022/10/27 13:50:37;;;;;;;4.75;2.87;;;;;;;;;;1774015;80;21049;-62
2022/10/27 13:53:17;;;;;;;3.70;3.05;;;;;;;;;;1777556;80;21082;-60
2022/10/27 13:55:48;;;;;;;3.98;2.67;;;;;;;;;;1777958;80;20986;-62
2022/10/27 13:58:20;;;;;;;4.15;2.85;;;;;;;;;;1768121;80;21524;-60
2022/10/27 14:00:57;;;;;;;5.37;3.00;;;;;;;;;;1771646;80;21127;-60
2022/10/27 14:03:34;;;;;;;6.08;3.22;;;;;;;;;;1772049;80;21091;-61
2022/10/27 14:06:00;;;;;;;8.33;3.25;;;;;;;;;;1762042;80;21025;-60
2022/10/27 14:08:31;;;;;;;4.08;2.77;;;;;;;;;;1768836;80;21016;-60
2022/10/27 14:11:01;;;;;;;3.70;2.90;;;;;;;;;;1741439;80;21048;-61
2022/10/27 14:13:34;;;;;;;5.67;3.30;;;;;;;;;;1769818;80;21534;-60
2022/10/27 14:16:02;;;;;;;5.42;3.20;;;;;;;;;;1766060;80;22045;-61
2022/10/27 14:18:30;;;;;;;4.35;3.05;;;;;;;;;;1779132;80;21021;-60
2022/10/27 14:20:58;;;;;;;4.42;2.90;;;;;;;;;;1778127;80;21520;-60
2022/10/27 14:23:25;;;;;;;5.78;2.95;;;;;;;;;;1738751;82;21013;-59
2022/10/27 14:25:51;;;;;;;5.72;3.20;;;;;;;;;;1700563;82;21516;-62
2022/10/27 14:28:19;;;;;;;5.17;3.05;;;;;;;;;;1715756;83;21556;-61
2022/10/27 14:30:47;;;;;;;6.03;3.30;;;;;;;;;;1737154;82;20998;-62
2022/10/27 14:33:14;;;;;;;5.47;2.95;;;;;;;;;;1742823;82;21055;-61
2022/10/27 14:35:41;;;;;;;6.90;3.40;;;;;;;;;;1758791;80;21578;-61
2022/10/27 14:38:17;;;;;;;5.50;3.35;;;;;;;;;;1775542;80;21032;-62
2022/10/27 14:40:43;;;;;;;7.58;3.52;;;;;;;;;;1774436;80;21073;-61
2022/10/27 14:43:15;;;;;;;5.15;3.17;;;;;;;;;;1781619;79;21072;-60
2022/10/27 14:45:42;;;;;;;7.53;4.30;;;;;;;;;;1770751;80;21048;-61
2022/10/27 14:48:08;;;;;;;5.80;3.92;;;;;;;;;;1773052;80;20981;-62
2022/10/27 14:50:35;;;;;;;8.48;4.75;;;;;;;;;;1751906;80;21083;-61
2022/10/27 14:53:02;;;;;;;7.80;4.30;;;;;;;;;;1771375;80;21079;-60
2022/10/27 14:55:30;;;;;;;7.67;5.42;;;;;;;;;;1782940;80;21068;-60
2022/10/27 14:57:56;;;;;;;9.50;4.85;;;;;;;;;;1770981;80;21512;-60
2022/10/27 15:00:27;;;;;;;9.05;4.92;;;;;;;;;;1774771;79;22191;-62